sensor_id;sensor_type;location;lat;lon;timestamp;P1;durP1;ratioP1;P2;durP2;ratioP2
44764;SDS011;30484;52.382;5.260;2022-08-03T00:02:13;10.32;;;2.30;;
44764;SDS011;30484;52.382;5.260;2022-08-03T00:04:42;11.63;;;1.92;;
44764;SDS011;30484;52.382;5.260;2022-08-03T00:07:11;16.65;;;2.10;;
44764;SDS011;30484;52.382;5.260;2022-08-03T00:09:39;13.32;;;2.40;;
44764;SDS011;30484;52.382;5.260;2022-08-03T00:12:08;11.30;;;2.25;;
44764;SDS011;30484;52.382;5.260;2022-08-03T00:14:36;8.70;;;1.95;;
44764;SDS011;30484;52.382;5.260;2022-08-03T00:17:04;9.40;;;2.15;;
44764;SDS011;30484;52.382;5.260;2022-08-03T00:19:32;10.35;;;2.13;;
44764;SDS011;30484;52.382;5.260;2022-08-03T00:22:01;9.07;;;1.95;;
44764;SDS011;30484;52.382;5.260;2022-08-03T00:24:30;9.73;;;2.08;;
44764;SDS011;30484;52.382;5.260;2022-08-03T00:26:59;9.45;;;2.10;;
44764;SDS011;30484;52.382;5.260;2022-08-03T00:29:27;5.70;;;1.90;;
44764;SDS011;30484;52.382;5.260;2022-08-03T00:31:56;12.65;;;1.88;;
44764;SDS011;30484;52.382;5.260;2022-08-03T00:34:25;4.25;;;1.48;;
44764;SDS011;30484;52.382;5.260;2022-08-03T00:37:14;8.25;;;1.80;;
44764;SDS011;30484;52.382;5.260;2022-08-03T00:39:44;13.68;;;2.30;;
44764;SDS011;30484;52.382;5.260;2022-08-03T00:42:13;12.07;;;1.75;;
44764;SDS011;30484;52.382;5.260;2022-08-03T00:44:42;11.15;;;1.98;;
44764;SDS011;30484;52.382;5.260;2022-08-03T00:47:11;11.32;;;2.00;;
44764;SDS011;30484;52.382;5.260;2022-08-03T00:49:39;10.68;;;2.00;;
44764;SDS011;30484;52.382;5.260;2022-08-03T00:52:08;9.30;;;1.98;;
44764;SDS011;30484;52.382;5.260;2022-08-03T00:54:37;12.95;;;1.98;;
44764;SDS011;30484;52.382;5.260;2022-08-03T00:57:07;10.15;;;2.05;;
44764;SDS011;30484;52.382;5.260;2022-08-03T00:59:35;9.38;;;1.80;;
44764;SDS011;30484;52.382;5.260;2022-08-03T01:02:05;9.80;;;2.25;;
44764;SDS011;30484;52.382;5.260;2022-08-03T01:04:33;11.02;;;2.25;;
44764;SDS011;30484;52.382;5.260;2022-08-03T01:07:02;11.82;;;2.22;;
44764;SDS011;30484;52.382;5.260;2022-08-03T01:09:37;9.00;;;1.90;;
44764;SDS011;30484;52.382;5.260;2022-08-03T01:12:12;6.65;;;1.95;;
44764;SDS011;30484;52.382;5.260;2022-08-03T01:14:45;8.77;;;1.77;;
44764;SDS011;30484;52.382;5.260;2022-08-03T01:17:19;10.80;;;2.10;;
44764;SDS011;30484;52.382;5.260;2022-08-03T01:19:51;8.57;;;1.98;;
44764;SDS011;30484;52.382;5.260;2022-08-03T01:22:30;9.60;;;2.00;;
44764;SDS011;30484;52.382;5.260;2022-08-03T01:25:09;13.20;;;2.40;;
44764;SDS011;30484;52.382;5.260;2022-08-03T01:27:47;14.05;;;2.78;;
44764;SDS011;30484;52.382;5.260;2022-08-03T01:30:22;12.43;;;2.05;;
44764;SDS011;30484;52.382;5.260;2022-08-03T01:32:54;14.93;;;2.25;;
44764;SDS011;30484;52.382;5.260;2022-08-03T01:35:31;8.43;;;2.13;;
44764;SDS011;30484;52.382;5.260;2022-08-03T01:38:06;16.10;;;2.53;;
44764;SDS011;30484;52.382;5.260;2022-08-03T01:40:38;9.20;;;1.90;;
44764;SDS011;30484;52.382;5.260;2022-08-03T01:43:08;12.68;;;2.05;;
44764;SDS011;30484;52.382;5.260;2022-08-03T01:46:02;12.10;;;2.20;;
44764;SDS011;30484;52.382;5.260;2022-08-03T01:48:31;17.55;;;2.80;;
44764;SDS011;30484;52.382;5.260;2022-08-03T01:50:59;14.85;;;2.45;;
44764;SDS011;30484;52.382;5.260;2022-08-03T01:53:27;14.60;;;2.42;;
44764;SDS011;30484;52.382;5.260;2022-08-03T01:55:56;12.18;;;2.45;;
44764;SDS011;30484;52.382;5.260;2022-08-03T01:58:25;10.93;;;2.58;;
44764;SDS011;30484;52.382;5.260;2022-08-03T02:00:55;10.68;;;2.15;;
44764;SDS011;30484;52.382;5.260;2022-08-03T02:03:29;10.90;;;2.72;;
44764;SDS011;30484;52.382;5.260;2022-08-03T02:06:01;11.23;;;2.72;;
44764;SDS011;30484;52.382;5.260;2022-08-03T02:08:49;15.10;;;2.55;;
44764;SDS011;30484;52.382;5.260;2022-08-03T02:11:18;12.38;;;2.65;;
44764;SDS011;30484;52.382;5.260;2022-08-03T02:13:46;19.17;;;2.63;;
44764;SDS011;30484;52.382;5.260;2022-08-03T02:16:18;8.60;;;2.72;;
44764;SDS011;30484;52.382;5.260;2022-08-03T02:19:09;21.00;;;3.05;;
44764;SDS011;30484;52.382;5.260;2022-08-03T02:21:38;13.73;;;2.60;;
44764;SDS011;30484;52.382;5.260;2022-08-03T02:24:26;12.68;;;2.97;;
44764;SDS011;30484;52.382;5.260;2022-08-03T02:26:55;15.82;;;3.03;;
44764;SDS011;30484;52.382;5.260;2022-08-03T02:29:24;16.20;;;3.28;;
44764;SDS011;30484;52.382;5.260;2022-08-03T02:32:08;12.23;;;2.80;;
44764;SDS011;30484;52.382;5.260;2022-08-03T02:34:41;15.02;;;2.63;;
44764;SDS011;30484;52.382;5.260;2022-08-03T02:37:11;14.15;;;2.50;;
44764;SDS011;30484;52.382;5.260;2022-08-03T02:39:40;14.82;;;2.63;;
44764;SDS011;30484;52.382;5.260;2022-08-03T02:42:09;11.13;;;2.83;;
44764;SDS011;30484;52.382;5.260;2022-08-03T02:44:39;16.17;;;2.50;;
44764;SDS011;30484;52.382;5.260;2022-08-03T02:47:13;16.65;;;2.67;;
44764;SDS011;30484;52.382;5.260;2022-08-03T02:49:43;12.85;;;2.95;;
44764;SDS011;30484;52.382;5.260;2022-08-03T02:52:17;10.02;;;2.97;;
44764;SDS011;30484;52.382;5.260;2022-08-03T02:54:47;13.85;;;2.95;;
44764;SDS011;30484;52.382;5.260;2022-08-03T02:57:17;19.42;;;3.22;;
44764;SDS011;30484;52.382;5.260;2022-08-03T02:59:46;17.10;;;3.00;;
44764;SDS011;30484;52.382;5.260;2022-08-03T03:02:14;12.63;;;2.83;;
44764;SDS011;30484;52.382;5.260;2022-08-03T03:04:45;12.93;;;3.00;;
44764;SDS011;30484;52.382;5.260;2022-08-03T03:07:34;15.43;;;3.25;;
44764;SDS011;30484;52.382;5.260;2022-08-03T03:10:17;12.00;;;2.70;;
44764;SDS011;30484;52.382;5.260;2022-08-03T03:12:46;15.82;;;2.90;;
44764;SDS011;30484;52.382;5.260;2022-08-03T03:15:15;15.77;;;3.17;;
44764;SDS011;30484;52.382;5.260;2022-08-03T03:17:44;20.35;;;3.55;;
44764;SDS011;30484;52.382;5.260;2022-08-03T03:20:13;13.60;;;3.08;;
44764;SDS011;30484;52.382;5.260;2022-08-03T03:22:55;21.00;;;3.38;;
44764;SDS011;30484;52.382;5.260;2022-08-03T03:25:24;10.68;;;2.90;;
44764;SDS011;30484;52.382;5.260;2022-08-03T03:27:53;16.42;;;3.78;;
44764;SDS011;30484;52.382;5.260;2022-08-03T03:30:22;12.82;;;3.60;;
44764;SDS011;30484;52.382;5.260;2022-08-03T03:32:51;16.50;;;3.17;;
44764;SDS011;30484;52.382;5.260;2022-08-03T03:35:21;20.35;;;3.97;;
44764;SDS011;30484;52.382;5.260;2022-08-03T03:37:49;13.10;;;3.00;;
44764;SDS011;30484;52.382;5.260;2022-08-03T03:40:18;14.95;;;3.50;;
44764;SDS011;30484;52.382;5.260;2022-08-03T03:42:46;18.13;;;3.60;;
44764;SDS011;30484;52.382;5.260;2022-08-03T03:45:14;17.48;;;4.00;;
44764;SDS011;30484;52.382;5.260;2022-08-03T03:47:42;16.52;;;3.88;;
44764;SDS011;30484;52.382;5.260;2022-08-03T03:50:10;17.70;;;3.95;;
44764;SDS011;30484;52.382;5.260;2022-08-03T03:52:40;15.52;;;3.53;;
44764;SDS011;30484;52.382;5.260;2022-08-03T03:55:08;19.98;;;3.25;;
44764;SDS011;30484;52.382;5.260;2022-08-03T03:57:36;17.58;;;3.60;;
44764;SDS011;30484;52.382;5.260;2022-08-03T04:00:05;21.67;;;4.15;;
44764;SDS011;30484;52.382;5.260;2022-08-03T04:02:34;16.77;;;3.85;;
44764;SDS011;30484;52.382;5.260;2022-08-03T04:05:03;20.95;;;3.90;;
44764;SDS011;30484;52.382;5.260;2022-08-03T04:07:54;16.92;;;3.92;;
44764;SDS011;30484;52.382;5.260;2022-08-03T04:10:44;15.70;;;3.45;;
44764;SDS011;30484;52.382;5.260;2022-08-03T04:13:32;14.57;;;3.55;;
44764;SDS011;30484;52.382;5.260;2022-08-03T04:16:02;17.80;;;4.30;;
44764;SDS011;30484;52.382;5.260;2022-08-03T04:18:32;15.52;;;3.63;;
44764;SDS011;30484;52.382;5.260;2022-08-03T04:21:02;20.40;;;3.92;;
44764;SDS011;30484;52.382;5.260;2022-08-03T04:23:34;15.23;;;3.40;;
44764;SDS011;30484;52.382;5.260;2022-08-03T04:26:08;19.73;;;3.83;;
44764;SDS011;30484;52.382;5.260;2022-08-03T04:28:40;21.42;;;4.10;;
44764;SDS011;30484;52.382;5.260;2022-08-03T04:31:09;16.88;;;3.65;;
44764;SDS011;30484;52.382;5.260;2022-08-03T04:33:37;15.90;;;3.65;;
44764;SDS011;30484;52.382;5.260;2022-08-03T04:36:06;18.05;;;3.97;;
44764;SDS011;30484;52.382;5.260;2022-08-03T04:38:42;15.65;;;3.63;;
44764;SDS011;30484;52.382;5.260;2022-08-03T04:41:14;21.48;;;3.65;;
44764;SDS011;30484;52.382;5.260;2022-08-03T04:43:43;17.27;;;3.97;;
44764;SDS011;30484;52.382;5.260;2022-08-03T04:46:11;17.15;;;4.00;;
44764;SDS011;30484;52.382;5.260;2022-08-03T04:48:39;17.50;;;4.32;;
44764;SDS011;30484;52.382;5.260;2022-08-03T04:51:10;21.92;;;4.53;;
44764;SDS011;30484;52.382;5.260;2022-08-03T04:53:38;21.50;;;4.25;;
44764;SDS011;30484;52.382;5.260;2022-08-03T04:56:08;13.93;;;4.20;;
44764;SDS011;30484;52.382;5.260;2022-08-03T04:58:36;19.08;;;4.45;;
44764;SDS011;30484;52.382;5.260;2022-08-03T05:01:04;15.82;;;3.53;;
44764;SDS011;30484;52.382;5.260;2022-08-03T05:03:32;17.30;;;4.15;;
44764;SDS011;30484;52.382;5.260;2022-08-03T05:06:00;23.42;;;4.25;;
44764;SDS011;30484;52.382;5.260;2022-08-03T05:08:36;17.63;;;4.00;;
44764;SDS011;30484;52.382;5.260;2022-08-03T05:11:13;17.67;;;4.07;;
44764;SDS011;30484;52.382;5.260;2022-08-03T05:13:42;20.92;;;4.10;;
44764;SDS011;30484;52.382;5.260;2022-08-03T05:16:10;24.92;;;4.70;;
44764;SDS011;30484;52.382;5.260;2022-08-03T05:18:39;16.02;;;4.38;;
44764;SDS011;30484;52.382;5.260;2022-08-03T05:21:07;18.65;;;4.03;;
44764;SDS011;30484;52.382;5.260;2022-08-03T05:23:39;18.00;;;4.13;;
44764;SDS011;30484;52.382;5.260;2022-08-03T05:26:07;16.27;;;4.32;;
44764;SDS011;30484;52.382;5.260;2022-08-03T05:28:38;20.77;;;4.80;;
44764;SDS011;30484;52.382;5.260;2022-08-03T05:31:16;21.75;;;4.22;;
44764;SDS011;30484;52.382;5.260;2022-08-03T05:33:45;20.25;;;4.45;;
44764;SDS011;30484;52.382;5.260;2022-08-03T05:36:14;21.27;;;4.70;;
44764;SDS011;30484;52.382;5.260;2022-08-03T05:38:42;29.52;;;5.68;;
44764;SDS011;30484;52.382;5.260;2022-08-03T05:41:11;18.00;;;4.88;;
44764;SDS011;30484;52.382;5.260;2022-08-03T05:43:50;26.35;;;5.00;;
44764;SDS011;30484;52.382;5.260;2022-08-03T05:46:19;17.67;;;5.47;;
44764;SDS011;30484;52.382;5.260;2022-08-03T05:48:47;28.05;;;5.43;;
44764;SDS011;30484;52.382;5.260;2022-08-03T05:51:15;30.63;;;5.88;;
44764;SDS011;30484;52.382;5.260;2022-08-03T05:53:44;21.55;;;7.80;;
44764;SDS011;30484;52.382;5.260;2022-08-03T05:56:12;27.98;;;9.00;;
44764;SDS011;30484;52.382;5.260;2022-08-03T05:58:42;31.08;;;8.07;;
44764;SDS011;30484;52.382;5.260;2022-08-03T06:01:13;28.08;;;8.50;;
44764;SDS011;30484;52.382;5.260;2022-08-03T06:03:41;23.08;;;8.93;;
44764;SDS011;30484;52.382;5.260;2022-08-03T06:06:13;20.73;;;7.93;;
44764;SDS011;30484;52.382;5.260;2022-08-03T06:08:41;32.60;;;8.40;;
44764;SDS011;30484;52.382;5.260;2022-08-03T06:11:10;25.15;;;7.50;;
44764;SDS011;30484;52.382;5.260;2022-08-03T06:13:39;23.05;;;7.13;;
44764;SDS011;30484;52.382;5.260;2022-08-03T06:16:07;23.17;;;6.75;;
44764;SDS011;30484;52.382;5.260;2022-08-03T06:18:37;27.95;;;7.82;;
44764;SDS011;30484;52.382;5.260;2022-08-03T06:21:06;28.88;;;7.88;;
44764;SDS011;30484;52.382;5.260;2022-08-03T06:23:41;24.30;;;7.07;;
44764;SDS011;30484;52.382;5.260;2022-08-03T06:26:20;26.52;;;6.95;;
44764;SDS011;30484;52.382;5.260;2022-08-03T06:28:53;32.42;;;6.47;;
44764;SDS011;30484;52.382;5.260;2022-08-03T06:31:22;25.88;;;6.63;;
44764;SDS011;30484;52.382;5.260;2022-08-03T06:34:00;31.83;;;7.18;;
44764;SDS011;30484;52.382;5.260;2022-08-03T06:36:49;22.33;;;6.10;;
44764;SDS011;30484;52.382;5.260;2022-08-03T06:39:18;19.27;;;6.55;;
44764;SDS011;30484;52.382;5.260;2022-08-03T06:41:49;27.95;;;7.32;;
44764;SDS011;30484;52.382;5.260;2022-08-03T06:44:18;22.90;;;7.10;;
44764;SDS011;30484;52.382;5.260;2022-08-03T06:46:46;29.42;;;7.82;;
44764;SDS011;30484;52.382;5.260;2022-08-03T06:49:18;25.05;;;8.32;;
44764;SDS011;30484;52.382;5.260;2022-08-03T06:51:46;26.60;;;7.90;;
44764;SDS011;30484;52.382;5.260;2022-08-03T06:54:33;31.63;;;8.43;;
44764;SDS011;30484;52.382;5.260;2022-08-03T06:57:02;27.77;;;8.05;;
44764;SDS011;30484;52.382;5.260;2022-08-03T06:59:31;28.48;;;7.70;;
44764;SDS011;30484;52.382;5.260;2022-08-03T07:02:19;24.95;;;8.00;;
44764;SDS011;30484;52.382;5.260;2022-08-03T07:04:48;24.65;;;7.65;;
44764;SDS011;30484;52.382;5.260;2022-08-03T07:07:17;30.67;;;7.97;;
44764;SDS011;30484;52.382;5.260;2022-08-03T07:09:45;26.95;;;8.82;;
44764;SDS011;30484;52.382;5.260;2022-08-03T07:12:23;28.10;;;8.13;;
44764;SDS011;30484;52.382;5.260;2022-08-03T07:14:52;29.92;;;8.55;;
44764;SDS011;30484;52.382;5.260;2022-08-03T07:17:25;24.73;;;7.85;;
44764;SDS011;30484;52.382;5.260;2022-08-03T07:19:55;22.27;;;7.60;;
44764;SDS011;30484;52.382;5.260;2022-08-03T07:22:23;27.73;;;8.68;;
44764;SDS011;30484;52.382;5.260;2022-08-03T07:24:51;28.50;;;9.25;;
44764;SDS011;30484;52.382;5.260;2022-08-03T07:27:19;29.58;;;9.02;;
44764;SDS011;30484;52.382;5.260;2022-08-03T07:29:47;30.45;;;9.18;;
44764;SDS011;30484;52.382;5.260;2022-08-03T07:32:15;29.38;;;7.50;;
44764;SDS011;30484;52.382;5.260;2022-08-03T07:34:44;23.67;;;7.85;;
44764;SDS011;30484;52.382;5.260;2022-08-03T07:37:13;30.13;;;8.32;;
44764;SDS011;30484;52.382;5.260;2022-08-03T07:39:42;22.92;;;7.15;;
44764;SDS011;30484;52.382;5.260;2022-08-03T07:42:10;29.15;;;8.63;;
44764;SDS011;30484;52.382;5.260;2022-08-03T07:44:39;23.48;;;7.15;;
44764;SDS011;30484;52.382;5.260;2022-08-03T07:47:07;23.30;;;8.23;;
44764;SDS011;30484;52.382;5.260;2022-08-03T07:49:47;23.23;;;7.25;;
44764;SDS011;30484;52.382;5.260;2022-08-03T07:52:17;21.73;;;6.80;;
44764;SDS011;30484;52.382;5.260;2022-08-03T07:55:03;21.52;;;7.00;;
44764;SDS011;30484;52.382;5.260;2022-08-03T07:57:33;25.10;;;6.65;;
44764;SDS011;30484;52.382;5.260;2022-08-03T08:00:03;23.58;;;6.15;;
44764;SDS011;30484;52.382;5.260;2022-08-03T08:02:32;24.83;;;6.13;;
44764;SDS011;30484;52.382;5.260;2022-08-03T08:05:01;22.63;;;6.03;;
44764;SDS011;30484;52.382;5.260;2022-08-03T08:10:06;24.42;;;6.47;;
44764;SDS011;30484;52.382;5.260;2022-08-03T08:12:36;23.27;;;6.15;;
44764;SDS011;30484;52.382;5.260;2022-08-03T08:15:06;23.30;;;6.78;;
44764;SDS011;30484;52.382;5.260;2022-08-03T08:17:45;22.65;;;6.95;;
44764;SDS011;30484;52.382;5.260;2022-08-03T08:20:14;22.45;;;6.38;;
44764;SDS011;30484;52.382;5.260;2022-08-03T08:22:57;26.45;;;7.18;;
44764;SDS011;30484;52.382;5.260;2022-08-03T08:25:27;17.30;;;5.88;;
44764;SDS011;30484;52.382;5.260;2022-08-03T08:27:57;26.13;;;7.38;;
44764;SDS011;30484;52.382;5.260;2022-08-03T08:30:47;23.33;;;6.75;;
44764;SDS011;30484;52.382;5.260;2022-08-03T08:33:15;24.77;;;7.07;;
44764;SDS011;30484;52.382;5.260;2022-08-03T08:35:49;20.23;;;5.90;;
44764;SDS011;30484;52.382;5.260;2022-08-03T08:38:20;24.83;;;7.13;;
44764;SDS011;30484;52.382;5.260;2022-08-03T08:40:54;28.08;;;7.22;;
44764;SDS011;30484;52.382;5.260;2022-08-03T08:43:22;20.83;;;7.15;;
44764;SDS011;30484;52.382;5.260;2022-08-03T08:45:51;25.75;;;7.43;;
44764;SDS011;30484;52.382;5.260;2022-08-03T08:48:22;19.27;;;7.80;;
44764;SDS011;30484;52.382;5.260;2022-08-03T08:50:52;24.35;;;8.25;;
44764;SDS011;30484;52.382;5.260;2022-08-03T08:53:22;25.70;;;8.05;;
44764;SDS011;30484;52.382;5.260;2022-08-03T08:55:54;26.52;;;8.02;;
44764;SDS011;30484;52.382;5.260;2022-08-03T08:58:27;27.77;;;7.75;;
44764;SDS011;30484;52.382;5.260;2022-08-03T09:00:56;27.48;;;7.78;;
44764;SDS011;30484;52.382;5.260;2022-08-03T09:03:25;22.63;;;7.45;;
44764;SDS011;30484;52.382;5.260;2022-08-03T09:05:56;27.77;;;7.45;;
44764;SDS011;30484;52.382;5.260;2022-08-03T09:08:27;24.13;;;7.00;;
44764;SDS011;30484;52.382;5.260;2022-08-03T09:10:55;22.52;;;7.10;;
44764;SDS011;30484;52.382;5.260;2022-08-03T09:13:23;27.08;;;7.00;;
44764;SDS011;30484;52.382;5.260;2022-08-03T09:18:36;20.70;;;6.10;;
44764;SDS011;30484;52.382;5.260;2022-08-03T09:21:14;21.33;;;5.93;;
44764;SDS011;30484;52.382;5.260;2022-08-03T09:23:58;24.27;;;6.32;;
44764;SDS011;30484;52.382;5.260;2022-08-03T09:26:31;22.25;;;5.53;;
44764;SDS011;30484;52.382;5.260;2022-08-03T09:29:01;24.40;;;6.40;;
44764;SDS011;30484;52.382;5.260;2022-08-03T09:31:38;26.10;;;6.18;;
44764;SDS011;30484;52.382;5.260;2022-08-03T09:34:11;22.23;;;6.47;;
44764;SDS011;30484;52.382;5.260;2022-08-03T09:36:40;17.60;;;5.85;;
44764;SDS011;30484;52.382;5.260;2022-08-03T09:39:11;22.33;;;6.60;;
44764;SDS011;30484;52.382;5.260;2022-08-03T09:41:40;25.45;;;6.22;;
44764;SDS011;30484;52.382;5.260;2022-08-03T09:44:09;21.38;;;6.53;;
44764;SDS011;30484;52.382;5.260;2022-08-03T09:46:51;22.90;;;6.60;;
44764;SDS011;30484;52.382;5.260;2022-08-03T09:49:22;24.77;;;6.40;;
44764;SDS011;30484;52.382;5.260;2022-08-03T09:51:51;24.73;;;5.68;;
44764;SDS011;30484;52.382;5.260;2022-08-03T09:54:41;23.77;;;6.65;;
44764;SDS011;30484;52.382;5.260;2022-08-03T09:57:20;21.55;;;6.55;;
44764;SDS011;30484;52.382;5.260;2022-08-03T09:59:49;19.13;;;5.85;;
44764;SDS011;30484;52.382;5.260;2022-08-03T10:02:33;33.05;;;7.45;;
44764;SDS011;30484;52.382;5.260;2022-08-03T10:05:02;22.35;;;6.38;;
44764;SDS011;30484;52.382;5.260;2022-08-03T10:07:40;16.77;;;6.55;;
44764;SDS011;30484;52.382;5.260;2022-08-03T10:10:13;25.95;;;9.13;;
44764;SDS011;30484;52.382;5.260;2022-08-03T10:15:26;21.75;;;7.22;;
44764;SDS011;30484;52.382;5.260;2022-08-03T10:18:14;26.67;;;6.70;;
44764;SDS011;30484;52.382;5.260;2022-08-03T10:20:44;21.00;;;6.25;;
44764;SDS011;30484;52.382;5.260;2022-08-03T10:23:15;22.63;;;7.38;;
44764;SDS011;30484;52.382;5.260;2022-08-03T10:25:47;26.70;;;7.07;;
44764;SDS011;30484;52.382;5.260;2022-08-03T10:28:18;19.20;;;6.90;;
44764;SDS011;30484;52.382;5.260;2022-08-03T10:30:48;26.98;;;7.40;;
44764;SDS011;30484;52.382;5.260;2022-08-03T10:33:18;20.23;;;7.22;;
44764;SDS011;30484;52.382;5.260;2022-08-03T10:36:07;21.50;;;7.18;;
44764;SDS011;30484;52.382;5.260;2022-08-03T10:38:37;14.93;;;6.68;;
44764;SDS011;30484;52.382;5.260;2022-08-03T10:41:08;19.92;;;6.68;;
44764;SDS011;30484;52.382;5.260;2022-08-03T10:43:40;27.42;;;7.40;;
44764;SDS011;30484;52.382;5.260;2022-08-03T10:46:14;24.00;;;7.57;;
44764;SDS011;30484;52.382;5.260;2022-08-03T10:48:51;23.85;;;7.40;;
44764;SDS011;30484;52.382;5.260;2022-08-03T10:51:22;21.70;;;7.40;;
44764;SDS011;30484;52.382;5.260;2022-08-03T10:53:55;23.83;;;7.00;;
44764;SDS011;30484;52.382;5.260;2022-08-03T10:56:39;23.08;;;6.65;;
44764;SDS011;30484;52.382;5.260;2022-08-03T10:59:56;23.98;;;6.45;;
44764;SDS011;30484;52.382;5.260;2022-08-03T11:05:38;22.30;;;6.50;;
44764;SDS011;30484;52.382;5.260;2022-08-03T11:08:19;31.55;;;7.13;;
44764;SDS011;30484;52.382;5.260;2022-08-03T11:10:57;23.58;;;6.90;;
44764;SDS011;30484;52.382;5.260;2022-08-03T11:13:29;27.42;;;7.25;;
44764;SDS011;30484;52.382;5.260;2022-08-03T11:16:00;22.63;;;7.53;;
44764;SDS011;30484;52.382;5.260;2022-08-03T11:18:54;18.67;;;6.47;;
44764;SDS011;30484;52.382;5.260;2022-08-03T11:27:28;26.45;;;6.80;;
44764;SDS011;30484;52.382;5.260;2022-08-03T11:30:03;20.65;;;6.22;;
44764;SDS011;30484;52.382;5.260;2022-08-03T11:35:22;26.85;;;6.90;;
44764;SDS011;30484;52.382;5.260;2022-08-03T11:38:06;22.05;;;5.75;;
44764;SDS011;30484;52.382;5.260;2022-08-03T11:40:46;27.77;;;6.50;;
44764;SDS011;30484;52.382;5.260;2022-08-03T11:46:13;21.95;;;5.25;;
44764;SDS011;30484;52.382;5.260;2022-08-03T11:48:54;21.52;;;5.35;;
44764;SDS011;30484;52.382;5.260;2022-08-03T11:51:36;20.98;;;5.03;;
44764;SDS011;30484;52.382;5.260;2022-08-03T11:54:07;23.67;;;4.90;;
44764;SDS011;30484;52.382;5.260;2022-08-03T11:56:43;26.08;;;5.55;;
44764;SDS011;30484;52.382;5.260;2022-08-03T11:59:13;21.35;;;5.53;;
44764;SDS011;30484;52.382;5.260;2022-08-03T12:01:47;21.70;;;4.97;;
44764;SDS011;30484;52.382;5.260;2022-08-03T12:04:16;19.67;;;5.93;;
44764;SDS011;30484;52.382;5.260;2022-08-03T12:06:58;18.17;;;5.22;;
44764;SDS011;30484;52.382;5.260;2022-08-03T12:09:29;21.25;;;5.10;;
44764;SDS011;30484;52.382;5.260;2022-08-03T12:11:59;21.52;;;5.38;;
44764;SDS011;30484;52.382;5.260;2022-08-03T12:14:28;19.73;;;5.43;;
44764;SDS011;30484;52.382;5.260;2022-08-03T12:17:16;21.52;;;5.63;;
44764;SDS011;30484;52.382;5.260;2022-08-03T12:19:45;17.70;;;5.07;;
44764;SDS011;30484;52.382;5.260;2022-08-03T12:22:13;20.98;;;5.47;;
44764;SDS011;30484;52.382;5.260;2022-08-03T12:24:44;24.30;;;5.38;;
44764;SDS011;30484;52.382;5.260;2022-08-03T12:27:21;18.33;;;4.28;;
44764;SDS011;30484;52.382;5.260;2022-08-03T12:29:51;19.02;;;4.68;;
44764;SDS011;30484;52.382;5.260;2022-08-03T12:32:24;14.52;;;4.00;;
44764;SDS011;30484;52.382;5.260;2022-08-03T12:34:53;13.48;;;4.53;;
44764;SDS011;30484;52.382;5.260;2022-08-03T12:37:26;17.45;;;4.35;;
44764;SDS011;30484;52.382;5.260;2022-08-03T12:39:57;17.05;;;4.07;;
44764;SDS011;30484;52.382;5.260;2022-08-03T12:42:35;16.63;;;4.07;;
44764;SDS011;30484;52.382;5.260;2022-08-03T12:45:18;13.48;;;3.72;;
44764;SDS011;30484;52.382;5.260;2022-08-03T12:47:50;20.67;;;4.15;;
44764;SDS011;30484;52.382;5.260;2022-08-03T12:50:22;15.32;;;4.43;;
44764;SDS011;30484;52.382;5.260;2022-08-03T12:52:54;14.75;;;3.85;;
44764;SDS011;30484;52.382;5.260;2022-08-03T12:55:25;13.68;;;3.75;;
44764;SDS011;30484;52.382;5.260;2022-08-03T12:58:27;14.13;;;4.43;;
44764;SDS011;30484;52.382;5.260;2022-08-03T13:01:00;12.27;;;4.22;;
44764;SDS011;30484;52.382;5.260;2022-08-03T13:03:39;14.23;;;4.68;;
44764;SDS011;30484;52.382;5.260;2022-08-03T13:06:16;12.18;;;3.63;;
44764;SDS011;30484;52.382;5.260;2022-08-03T13:08:47;8.55;;;3.28;;
44764;SDS011;30484;52.382;5.260;2022-08-03T13:11:29;12.27;;;3.10;;
44764;SDS011;30484;52.382;5.260;2022-08-03T13:14:17;15.48;;;3.80;;
44764;SDS011;30484;52.382;5.260;2022-08-03T13:16:46;15.85;;;3.58;;
44764;SDS011;30484;52.382;5.260;2022-08-03T13:19:15;17.80;;;3.28;;
44764;SDS011;30484;52.382;5.260;2022-08-03T13:21:44;10.88;;;2.85;;
44764;SDS011;30484;52.382;5.260;2022-08-03T13:24:30;14.98;;;2.85;;
44764;SDS011;30484;52.382;5.260;2022-08-03T13:27:00;10.40;;;2.95;;
44764;SDS011;30484;52.382;5.260;2022-08-03T13:29:51;13.40;;;2.80;;
44764;SDS011;30484;52.382;5.260;2022-08-03T13:32:21;14.63;;;2.90;;
44764;SDS011;30484;52.382;5.260;2022-08-03T13:34:50;10.48;;;3.55;;
44764;SDS011;30484;52.382;5.260;2022-08-03T13:37:18;15.30;;;2.80;;
44764;SDS011;30484;52.382;5.260;2022-08-03T13:39:49;13.57;;;2.92;;
44764;SDS011;30484;52.382;5.260;2022-08-03T13:42:27;19.33;;;3.17;;
44764;SDS011;30484;52.382;5.260;2022-08-03T13:44:58;10.70;;;2.42;;
44764;SDS011;30484;52.382;5.260;2022-08-03T13:47:27;12.95;;;2.33;;
44764;SDS011;30484;52.382;5.260;2022-08-03T13:49:55;11.27;;;2.33;;
44764;SDS011;30484;52.382;5.260;2022-08-03T13:52:28;8.30;;;1.83;;
44764;SDS011;30484;52.382;5.260;2022-08-03T13:54:58;12.90;;;2.38;;
44764;SDS011;30484;52.382;5.260;2022-08-03T13:57:28;9.88;;;2.53;;
44764;SDS011;30484;52.382;5.260;2022-08-03T14:00:18;11.80;;;2.75;;
44764;SDS011;30484;52.382;5.260;2022-08-03T14:02:53;11.73;;;1.90;;
44764;SDS011;30484;52.382;5.260;2022-08-03T14:05:42;8.25;;;2.25;;
44764;SDS011;30484;52.382;5.260;2022-08-03T14:08:10;12.90;;;2.45;;
44764;SDS011;30484;52.382;5.260;2022-08-03T14:10:39;8.55;;;2.08;;
44764;SDS011;30484;52.382;5.260;2022-08-03T14:13:12;9.50;;;2.00;;
44764;SDS011;30484;52.382;5.260;2022-08-03T14:15:43;11.63;;;2.28;;
44764;SDS011;30484;52.382;5.260;2022-08-03T14:18:16;9.18;;;2.00;;
44764;SDS011;30484;52.382;5.260;2022-08-03T14:20:59;8.45;;;1.73;;
44764;SDS011;30484;52.382;5.260;2022-08-03T14:23:33;6.43;;;1.87;;
44764;SDS011;30484;52.382;5.260;2022-08-03T14:26:04;9.05;;;2.03;;
44764;SDS011;30484;52.382;5.260;2022-08-03T14:28:35;8.50;;;1.75;;
44764;SDS011;30484;52.382;5.260;2022-08-03T14:31:04;11.63;;;2.22;;
44764;SDS011;30484;52.382;5.260;2022-08-03T14:33:43;8.77;;;2.05;;
44764;SDS011;30484;52.382;5.260;2022-08-03T14:36:12;7.85;;;1.90;;
44764;SDS011;30484;52.382;5.260;2022-08-03T14:38:40;9.35;;;1.73;;
44764;SDS011;30484;52.382;5.260;2022-08-03T14:41:08;8.73;;;1.60;;
44764;SDS011;30484;52.382;5.260;2022-08-03T14:43:46;5.97;;;1.55;;
44764;SDS011;30484;52.382;5.260;2022-08-03T14:46:27;7.38;;;1.83;;
44764;SDS011;30484;52.382;5.260;2022-08-03T14:48:56;7.35;;;1.85;;
44764;SDS011;30484;52.382;5.260;2022-08-03T14:51:45;7.25;;;1.60;;
44764;SDS011;30484;52.382;5.260;2022-08-03T14:54:19;7.60;;;1.83;;
44764;SDS011;30484;52.382;5.260;2022-08-03T14:56:48;6.03;;;1.60;;
44764;SDS011;30484;52.382;5.260;2022-08-03T14:59:18;7.68;;;2.03;;
44764;SDS011;30484;52.382;5.260;2022-08-03T15:01:47;9.25;;;1.95;;
44764;SDS011;30484;52.382;5.260;2022-08-03T15:04:31;7.30;;;1.83;;
44764;SDS011;30484;52.382;5.260;2022-08-03T15:07:00;5.15;;;1.63;;
44764;SDS011;30484;52.382;5.260;2022-08-03T15:09:28;8.32;;;1.65;;
44764;SDS011;30484;52.382;5.260;2022-08-03T15:11:56;10.15;;;1.83;;
44764;SDS011;30484;52.382;5.260;2022-08-03T15:14:27;10.48;;;2.03;;
44764;SDS011;30484;52.382;5.260;2022-08-03T15:19:31;11.95;;;1.90;;
44764;SDS011;30484;52.382;5.260;2022-08-03T15:22:19;13.13;;;1.85;;
44764;SDS011;30484;52.382;5.260;2022-08-03T15:24:50;9.00;;;1.70;;
44764;SDS011;30484;52.382;5.260;2022-08-03T15:27:21;7.00;;;1.70;;
44764;SDS011;30484;52.382;5.260;2022-08-03T15:29:51;8.38;;;1.67;;
44764;SDS011;30484;52.382;5.260;2022-08-03T15:32:35;3.75;;;1.55;;
44764;SDS011;30484;52.382;5.260;2022-08-03T15:35:04;9.48;;;2.10;;